TimePDT,TemperatureF,Dew PointF,Humidity,Sea Level PressureIn,VisibilityMPH,Wind Direction,Wind SpeedMPH,Gust SpeedMPH,PrecipitationIn,Events,Conditions,WindDirDegrees,DateUTC
12:21 AM,46.9,44.1,90,30.20,10.0,SW,5.8,-,N/A,,Overcast,230,2013-10-03 07:21:00
12:53 AM,46.9,45.0,93,30.22,10.0,Calm,Calm,-,N/A,,Overcast,0,2013-10-03 07:53:00
1:27 AM,46.9,44.1,90,30.22,10.0,WSW,5.8,-,N/A,,Overcast,240,2013-10-03 08:27:00
1:53 AM,46.9,44.1,90,30.24,10.0,WSW,5.8,-,N/A,,Overcast,240,2013-10-03 08:53:00
2:53 AM,48.0,45.0,89,30.26,10.0,SSW,3.5,-,N/A,,Overcast,200,2013-10-03 09:53:00
3:45 AM,48.0,46.0,93,30.26,10.0,Calm,Calm,-,0.02,Rain,Light Rain,0,2013-10-03 10:45:00
3:53 AM,48.0,46.0,93,30.27,10.0,Calm,Calm,-,0.02,Rain,Light Rain,0,2013-10-03 10:53:00
4:27 AM,48.0,46.0,93,30.28,10.0,SW,4.6,-,0.00,,Overcast,220,2013-10-03 11:27:00
4:53 AM,48.0,46.0,93,30.30,10.0,SW,4.6,-,0.00,,Overcast,220,2013-10-03 11:53:00
5:25 AM,48.0,46.0,93,30.30,10.0,WSW,3.5,-,N/A,,Overcast,250,2013-10-03 12:25:00
5:53 AM,48.0,45.0,89,30.32,10.0,SW,5.8,-,N/A,,Overcast,230,2013-10-03 12:53:00
6:29 AM,46.9,45.0,93,30.31,10.0,SE,3.5,-,N/A,,Overcast,130,2013-10-03 13:29:00
6:53 AM,45.0,44.1,97,30.31,6.0,SSE,4.6,-,N/A,,Scattered Clouds,150,2013-10-03 13:53:00
7:53 AM,44.1,42.1,93,30.35,9.0,Calm,Calm,-,N/A,,Scattered Clouds,0,2013-10-03 14:53:00
8:53 AM,48.9,46.0,90,30.37,10.0,South,3.5,-,N/A,,Mostly Cloudy,170,2013-10-03 15:53:00
9:05 AM,48.9,46.0,90,30.37,10.0,South,3.5,-,N/A,,Overcast,180,2013-10-03 16:05:00
9:53 AM,50.0,44.1,80,30.39,10.0,ENE,4.6,-,N/A,,Overcast,70,2013-10-03 16:53:00
10:53 AM,51.1,46.0,83,30.40,10.0,ESE,3.5,-,N/A,,Overcast,120,2013-10-03 17:53:00
11:53 AM,54.0,46.0,75,30.40,10.0,SSE,5.8,-,N/A,,Scattered Clouds,160,2013-10-03 18:53:00
12:18 PM,53.1,46.0,77,30.40,10.0,East,5.8,-,N/A,,Mostly Cloudy,80,2013-10-03 19:18:00
12:34 PM,53.1,46.0,77,30.41,10.0,Variable,6.9,-,N/A,,Scattered Clouds,0,2013-10-03 19:34:00
12:53 PM,53.1,46.0,77,30.42,10.0,NE,5.8,-,N/A,,Scattered Clouds,40,2013-10-03 19:53:00
1:53 PM,55.0,46.0,72,30.41,10.0,East,8.1,-,N/A,,Clear,90,2013-10-03 20:53:00
2:53 PM,55.0,46.0,72,30.41,10.0,Variable,3.5,-,N/A,,Clear,0,2013-10-03 21:53:00
3:53 PM,55.0,46.0,72,30.42,10.0,Variable,4.6,-,N/A,,Clear,0,2013-10-03 22:53:00
4:53 PM,55.0,45.0,69,30.42,10.0,NE,3.5,-,N/A,,Scattered Clouds,40,2013-10-03 23:53:00
5:53 PM,53.1,46.0,77,30.42,10.0,ESE,3.5,-,N/A,,Overcast,110,2013-10-04 00:53:00
6:53 PM,51.1,46.0,83,30.43,10.0,Calm,Calm,-,N/A,,Overcast,0,2013-10-04 01:53:00
7:53 PM,48.9,46.0,90,30.43,10.0,Calm,Calm,-,N/A,,Partly Cloudy,0,2013-10-04 02:53:00
9:53 PM,46.9,45.0,93,30.45,10.0,Calm,Calm,-,N/A,,Overcast,0,2013-10-04 04:53:00
10:53 PM,44.1,42.1,93,30.45,10.0,Calm,Calm,-,N/A,,Clear,0,2013-10-04 05:53:00
11:53 PM,43.0,42.1,97,30.45,10.0,Calm,Calm,-,N/A,,Clear,0,2013-10-04 06:53:00